sensor_id;sensor_type;location;lat;lon;timestamp;pressure;altitude;pressure_sealevel;temperature;humidity
64023;BME280;50264;52.088;5.296;2022-07-29T00:00:44;101745.0;;;18.34;56.77
64023;BME280;50264;52.088;5.296;2022-07-29T00:02:32;101751.0;;;18.43;56.64
64023;BME280;50264;52.088;5.296;2022-07-29T00:06:06;101751.0;;;18.34;57.14
64023;BME280;50264;52.088;5.296;2022-07-29T00:07:53;101746.0;;;18.34;57.07
64023;BME280;50264;52.088;5.296;2022-07-29T00:09:40;101749.0;;;18.28;57.24
64023;BME280;50264;52.088;5.296;2022-07-29T00:11:27;101743.0;;;18.05;57.3
64023;BME280;50264;52.088;5.296;2022-07-29T00:13:15;101741.0;;;18.09;57.83
64023;BME280;50264;52.088;5.296;2022-07-29T00:15:01;101742.0;;;17.96;58.3
64023;BME280;50264;52.088;5.296;2022-07-29T00:18:34;101734.0;;;17.91;57.31
64023;BME280;50264;52.088;5.296;2022-07-29T00:20:20;101734.0;;;17.77;59.1
64023;BME280;50264;52.088;5.296;2022-07-29T00:22:07;101728.0;;;17.78;58.71
64023;BME280;50264;52.088;5.296;2022-07-29T00:23:54;101730.0;;;17.77;59.92
64023;BME280;50264;52.088;5.296;2022-07-29T00:25:40;101724.0;;;17.73;59.06
64023;BME280;50264;52.088;5.296;2022-07-29T00:27:26;101723.0;;;17.78;59.2
64023;BME280;50264;52.088;5.296;2022-07-29T00:30:58;101722.0;;;17.7;59.41
64023;BME280;50264;52.088;5.296;2022-07-29T00:32:44;101719.0;;;17.75;59.33
64023;BME280;50264;52.088;5.296;2022-07-29T00:37:33;101717.0;;;17.66;58.9
64023;BME280;50264;52.088;5.296;2022-07-29T00:39:19;101716.0;;;17.71;59.0
64023;BME280;50264;52.088;5.296;2022-07-29T00:41:05;101717.0;;;17.61;59.71
64023;BME280;50264;52.088;5.296;2022-07-29T00:42:52;101712.0;;;17.59;60.02
64023;BME280;50264;52.088;5.296;2022-07-29T00:44:39;101713.0;;;17.61;60.07
64023;BME280;50264;52.088;5.296;2022-07-29T00:46:26;101712.0;;;17.54;59.58
64023;BME280;50264;52.088;5.296;2022-07-29T00:49:59;101707.0;;;17.48;60.73
64023;BME280;50264;52.088;5.296;2022-07-29T00:51:48;101705.0;;;17.37;61.51
64023;BME280;50264;52.088;5.296;2022-07-29T00:53:35;101706.0;;;17.37;61.05
64023;BME280;50264;52.088;5.296;2022-07-29T00:55:22;101703.0;;;17.32;60.26
64023;BME280;50264;52.088;5.296;2022-07-29T00:57:10;101697.0;;;17.27;61.33
64023;BME280;50264;52.088;5.296;2022-07-29T00:58:57;101698.0;;;17.23;62.28
64023;BME280;50264;52.088;5.296;2022-07-29T01:02:32;101696.0;;;17.2;61.08
64023;BME280;50264;52.088;5.296;2022-07-29T01:04:18;101694.0;;;17.27;61.4
64023;BME280;50264;52.088;5.296;2022-07-29T01:06:05;101692.0;;;17.27;61.99
64023;BME280;50264;52.088;5.296;2022-07-29T01:07:54;101690.0;;;17.32;61.9
64023;BME280;50264;52.088;5.296;2022-07-29T01:09:44;101690.0;;;17.36;62.11
64023;BME280;50264;52.088;5.296;2022-07-29T01:11:32;101684.0;;;17.41;61.39
64023;BME280;50264;52.088;5.296;2022-07-29T01:15:08;101685.0;;;17.45;61.04
64023;BME280;50264;52.088;5.296;2022-07-29T01:16:59;101685.0;;;17.38;60.49
64023;BME280;50264;52.088;5.296;2022-07-29T01:19:03;101685.0;;;17.28;61.13
64023;BME280;50264;52.088;5.296;2022-07-29T01:21:20;101689.0;;;17.32;61.25
64023;BME280;50264;52.088;5.296;2022-07-29T01:24:14;101681.0;;;17.39;60.94
64023;BME280;50264;52.088;5.296;2022-07-29T01:26:52;101684.0;;;17.29;60.11
64023;BME280;50264;52.088;5.296;2022-07-29T01:28:55;101689.0;;;17.31;60.58
64023;BME280;50264;52.088;5.296;2022-07-29T01:30:47;101684.0;;;17.25;60.8
64023;BME280;50264;52.088;5.296;2022-07-29T01:32:37;101686.0;;;17.18;61.26
64023;BME280;50264;52.088;5.296;2022-07-29T01:34:29;101688.0;;;17.23;61.55
64023;BME280;50264;52.088;5.296;2022-07-29T01:38:16;101685.0;;;17.22;61.87
64023;BME280;50264;52.088;5.296;2022-07-29T01:40:13;101684.0;;;17.21;62.98
64023;BME280;50264;52.088;5.296;2022-07-29T01:42:12;101684.0;;;17.18;62.13
64023;BME280;50264;52.088;5.296;2022-07-29T01:44:10;101687.0;;;17.22;61.41
64023;BME280;50264;52.088;5.296;2022-07-29T01:46:02;101690.0;;;17.14;62.11
64023;BME280;50264;52.088;5.296;2022-07-29T01:47:58;101689.0;;;17.18;61.87
64023;BME280;50264;52.088;5.296;2022-07-29T01:49:51;101690.0;;;17.03;62.77
64023;BME280;50264;52.088;5.296;2022-07-29T01:51:44;101691.0;;;16.93;62.2
64023;BME280;50264;52.088;5.296;2022-07-29T01:53:41;101693.0;;;17.02;61.4
64023;BME280;50264;52.088;5.296;2022-07-29T01:55:40;101691.0;;;17.02;62.21
64023;BME280;50264;52.088;5.296;2022-07-29T01:57:31;101693.0;;;17.02;62.62
64023;BME280;50264;52.088;5.296;2022-07-29T02:01:08;101693.0;;;17.0;63.32
64023;BME280;50264;52.088;5.296;2022-07-29T02:02:57;101688.0;;;17.0;63.24
64023;BME280;50264;52.088;5.296;2022-07-29T02:04:49;101683.0;;;16.97;63.0
64023;BME280;50264;52.088;5.296;2022-07-29T02:06:38;101684.0;;;17.04;62.54
64023;BME280;50264;52.088;5.296;2022-07-29T02:08:28;101682.0;;;16.96;62.59
64023;BME280;50264;52.088;5.296;2022-07-29T02:10:18;101681.0;;;17.0;62.79
64023;BME280;50264;52.088;5.296;2022-07-29T02:12:09;101682.0;;;17.09;62.23
64023;BME280;50264;52.088;5.296;2022-07-29T02:15:48;101685.0;;;17.04;61.65
64023;BME280;50264;52.088;5.296;2022-07-29T02:17:39;101685.0;;;17.09;61.01
64023;BME280;50264;52.088;5.296;2022-07-29T02:19:32;101685.0;;;16.98;61.49
64023;BME280;50264;52.088;5.296;2022-07-29T02:21:21;101682.0;;;16.89;61.65
64023;BME280;50264;52.088;5.296;2022-07-29T02:23:10;101682.0;;;16.9;61.98
64023;BME280;50264;52.088;5.296;2022-07-29T02:24:59;101686.0;;;17.03;61.52
64023;BME280;50264;52.088;5.296;2022-07-29T02:26:49;101686.0;;;17.09;60.92
64023;BME280;50264;52.088;5.296;2022-07-29T02:30:24;101682.0;;;17.11;61.16
64023;BME280;50264;52.088;5.296;2022-07-29T02:32:13;101684.0;;;17.04;61.92
64023;BME280;50264;52.088;5.296;2022-07-29T02:34:03;101684.0;;;17.0;62.26
64023;BME280;50264;52.088;5.296;2022-07-29T02:35:52;101682.0;;;16.93;62.36
64023;BME280;50264;52.088;5.296;2022-07-29T02:37:41;101680.0;;;16.9;62.5
64023;BME280;50264;52.088;5.296;2022-07-29T02:39:30;101682.0;;;16.89;63.25
64023;BME280;50264;52.088;5.296;2022-07-29T02:41:20;101676.0;;;16.81;63.04
64023;BME280;50264;52.088;5.296;2022-07-29T02:44:57;101677.0;;;16.86;62.68
64023;BME280;50264;52.088;5.296;2022-07-29T02:46:47;101674.0;;;16.88;62.48
64023;BME280;50264;52.088;5.296;2022-07-29T02:48:43;101675.0;;;16.81;62.62
64023;BME280;50264;52.088;5.296;2022-07-29T02:50:31;101670.0;;;16.75;62.82
64023;BME280;50264;52.088;5.296;2022-07-29T02:52:23;101670.0;;;16.75;62.9
64023;BME280;50264;52.088;5.296;2022-07-29T02:54:21;101672.0;;;16.84;62.59
64023;BME280;50264;52.088;5.296;2022-07-29T02:56:11;101672.0;;;16.84;62.59
64023;BME280;50264;52.088;5.296;2022-07-29T02:58:02;101674.0;;;16.82;63.36
64023;BME280;50264;52.088;5.296;2022-07-29T03:01:44;101673.0;;;16.79;62.17
64023;BME280;50264;52.088;5.296;2022-07-29T03:03:34;101669.0;;;16.75;62.3
64023;BME280;50264;52.088;5.296;2022-07-29T03:05:22;101672.0;;;16.75;62.23
64023;BME280;50264;52.088;5.296;2022-07-29T03:07:11;101676.0;;;16.79;62.36
64023;BME280;50264;52.088;5.296;2022-07-29T03:08:59;101670.0;;;16.66;62.25
64023;BME280;50264;52.088;5.296;2022-07-29T03:10:47;101673.0;;;16.7;63.28
64023;BME280;50264;52.088;5.296;2022-07-29T03:14:23;101674.0;;;16.75;62.81
64023;BME280;50264;52.088;5.296;2022-07-29T03:16:10;101673.0;;;16.73;62.5
64023;BME280;50264;52.088;5.296;2022-07-29T03:17:59;101671.0;;;16.7;62.45
64023;BME280;50264;52.088;5.296;2022-07-29T03:19:46;101669.0;;;16.75;63.45
64023;BME280;50264;52.088;5.296;2022-07-29T03:21:32;101664.0;;;16.75;63.49
64023;BME280;50264;52.088;5.296;2022-07-29T03:23:23;101665.0;;;16.71;63.95
64023;BME280;50264;52.088;5.296;2022-07-29T03:27:00;101660.0;;;16.75;63.97
64023;BME280;50264;52.088;5.296;2022-07-29T03:28:46;101661.0;;;16.71;63.67
64023;BME280;50264;52.088;5.296;2022-07-29T03:30:33;101652.0;;;16.77;63.62
64023;BME280;50264;52.088;5.296;2022-07-29T03:32:20;101655.0;;;16.75;63.82
64023;BME280;50264;52.088;5.296;2022-07-29T03:34:06;101649.0;;;16.75;63.71
64023;BME280;50264;52.088;5.296;2022-07-29T03:35:52;101651.0;;;16.68;63.53
64023;BME280;50264;52.088;5.296;2022-07-29T03:39:28;101648.0;;;16.68;63.3
64023;BME280;50264;52.088;5.296;2022-07-29T03:41:18;101648.0;;;16.71;63.07
64023;BME280;50264;52.088;5.296;2022-07-29T03:43:07;101638.0;;;16.84;63.48
64023;BME280;50264;52.088;5.296;2022-07-29T03:44:57;101639.0;;;16.8;62.84
64023;BME280;50264;52.088;5.296;2022-07-29T03:46:46;101642.0;;;16.84;62.11
64023;BME280;50264;52.088;5.296;2022-07-29T03:48:37;101641.0;;;16.95;60.98
64023;BME280;50264;52.088;5.296;2022-07-29T03:50:25;101643.0;;;16.95;61.34
64023;BME280;50264;52.088;5.296;2022-07-29T03:54:00;101644.0;;;16.88;62.15
64023;BME280;50264;52.088;5.296;2022-07-29T03:55:52;101645.0;;;16.88;61.77
64023;BME280;50264;52.088;5.296;2022-07-29T03:57:40;101643.0;;;16.79;62.37
64023;BME280;50264;52.088;5.296;2022-07-29T03:59:30;101640.0;;;16.86;62.36
64023;BME280;50264;52.088;5.296;2022-07-29T04:01:19;101643.0;;;16.78;62.93
64023;BME280;50264;52.088;5.296;2022-07-29T04:03:08;101642.0;;;16.81;62.96
64023;BME280;50264;52.088;5.296;2022-07-29T04:06:43;101640.0;;;16.82;63.34
64023;BME280;50264;52.088;5.296;2022-07-29T04:08:31;101645.0;;;16.75;64.38
64023;BME280;50264;52.088;5.296;2022-07-29T04:10:19;101643.0;;;16.8;62.59
64023;BME280;50264;52.088;5.296;2022-07-29T04:12:05;101642.0;;;16.84;61.87
64023;BME280;50264;52.088;5.296;2022-07-29T04:13:52;101640.0;;;16.84;62.32
64023;BME280;50264;52.088;5.296;2022-07-29T04:15:39;101639.0;;;16.75;62.33
64023;BME280;50264;52.088;5.296;2022-07-29T04:19:11;101643.0;;;16.75;63.14
64023;BME280;50264;52.088;5.296;2022-07-29T04:21:00;101639.0;;;16.75;62.97
64023;BME280;50264;52.088;5.296;2022-07-29T04:22:47;101638.0;;;16.65;63.47
64023;BME280;50264;52.088;5.296;2022-07-29T04:24:34;101635.0;;;16.63;63.66
64023;BME280;50264;52.088;5.296;2022-07-29T04:26:20;101630.0;;;16.75;63.13
64023;BME280;50264;52.088;5.296;2022-07-29T04:28:09;101632.0;;;16.75;63.06
64023;BME280;50264;52.088;5.296;2022-07-29T04:31:42;101632.0;;;16.81;62.16
64023;BME280;50264;52.088;5.296;2022-07-29T04:33:29;101633.0;;;16.73;62.96
64023;BME280;50264;52.088;5.296;2022-07-29T04:35:15;101638.0;;;16.87;62.4
64023;BME280;50264;52.088;5.296;2022-07-29T04:37:02;101637.0;;;16.77;62.74
64023;BME280;50264;52.088;5.296;2022-07-29T04:38:49;101638.0;;;16.73;62.82
64023;BME280;50264;52.088;5.296;2022-07-29T04:40:36;101646.0;;;16.7;62.38
64023;BME280;50264;52.088;5.296;2022-07-29T04:44:08;101644.0;;;16.77;62.58
64023;BME280;50264;52.088;5.296;2022-07-29T04:45:55;101645.0;;;16.77;62.46
64023;BME280;50264;52.088;5.296;2022-07-29T04:47:41;101642.0;;;16.75;63.28
64023;BME280;50264;52.088;5.296;2022-07-29T04:49:28;101647.0;;;16.77;63.85
64023;BME280;50264;52.088;5.296;2022-07-29T04:51:14;101647.0;;;16.78;63.5
64023;BME280;50264;52.088;5.296;2022-07-29T04:54:48;101645.0;;;16.77;64.05
64023;BME280;50264;52.088;5.296;2022-07-29T04:56:35;101643.0;;;16.79;63.33
64023;BME280;50264;52.088;5.296;2022-07-29T04:58:23;101646.0;;;16.75;64.0
64023;BME280;50264;52.088;5.296;2022-07-29T05:00:11;101646.0;;;16.75;63.38
64023;BME280;50264;52.088;5.296;2022-07-29T05:01:57;101645.0;;;16.84;62.84
64023;BME280;50264;52.088;5.296;2022-07-29T05:03:44;101644.0;;;16.81;63.73
64023;BME280;50264;52.088;5.296;2022-07-29T05:07:17;101645.0;;;16.84;63.63
64023;BME280;50264;52.088;5.296;2022-07-29T05:09:03;101642.0;;;16.8;63.88
64023;BME280;50264;52.088;5.296;2022-07-29T05:10:51;101648.0;;;16.7;63.38
64023;BME280;50264;52.088;5.296;2022-07-29T05:12:37;101649.0;;;16.77;63.95
64023;BME280;50264;52.088;5.296;2022-07-29T05:14:23;101647.0;;;16.93;63.51
64023;BME280;50264;52.088;5.296;2022-07-29T05:16:10;101645.0;;;16.91;63.24
64023;BME280;50264;52.088;5.296;2022-07-29T05:19:42;101643.0;;;16.86;63.79
64023;BME280;50264;52.088;5.296;2022-07-29T05:21:30;101640.0;;;17.0;63.3
64023;BME280;50264;52.088;5.296;2022-07-29T05:23:16;101643.0;;;17.02;63.86
64023;BME280;50264;52.088;5.296;2022-07-29T05:25:04;101643.0;;;17.03;63.72
64023;BME280;50264;52.088;5.296;2022-07-29T05:26:50;101643.0;;;17.14;62.95
64023;BME280;50264;52.088;5.296;2022-07-29T05:30:23;101647.0;;;17.18;62.68
64023;BME280;50264;52.088;5.296;2022-07-29T05:32:11;101655.0;;;17.12;61.29
64023;BME280;50264;52.088;5.296;2022-07-29T05:33:58;101651.0;;;17.2;61.58
64023;BME280;50264;52.088;5.296;2022-07-29T05:35:44;101653.0;;;17.25;61.55
64023;BME280;50264;52.088;5.296;2022-07-29T05:37:30;101649.0;;;17.36;62.01
64023;BME280;50264;52.088;5.296;2022-07-29T05:39:17;101651.0;;;17.27;60.85
64023;BME280;50264;52.088;5.296;2022-07-29T05:42:51;101657.0;;;17.32;60.87
64023;BME280;50264;52.088;5.296;2022-07-29T05:44:38;101659.0;;;17.25;60.66
64023;BME280;50264;52.088;5.296;2022-07-29T05:46:25;101663.0;;;17.28;60.67
64023;BME280;50264;52.088;5.296;2022-07-29T05:48:12;101659.0;;;17.41;60.53
64023;BME280;50264;52.088;5.296;2022-07-29T05:49:58;101664.0;;;17.38;61.31
64023;BME280;50264;52.088;5.296;2022-07-29T05:51:44;101665.0;;;17.53;60.0
64023;BME280;50264;52.088;5.296;2022-07-29T05:55:18;101667.0;;;17.55;61.26
64023;BME280;50264;52.088;5.296;2022-07-29T05:57:04;101663.0;;;17.59;61.83
64023;BME280;50264;52.088;5.296;2022-07-29T05:58:52;101659.0;;;17.52;60.42
64023;BME280;50264;52.088;5.296;2022-07-29T06:00:40;101657.0;;;17.55;60.25
64023;BME280;50264;52.088;5.296;2022-07-29T06:02:26;101661.0;;;17.56;60.39
64023;BME280;50264;52.088;5.296;2022-07-29T06:04:13;101659.0;;;17.7;59.65
64023;BME280;50264;52.088;5.296;2022-07-29T06:07:46;101664.0;;;17.68;60.02
64023;BME280;50264;52.088;5.296;2022-07-29T06:09:32;101661.0;;;17.7;59.74
64023;BME280;50264;52.088;5.296;2022-07-29T06:11:19;101663.0;;;17.61;61.45
64023;BME280;50264;52.088;5.296;2022-07-29T06:13:05;101662.0;;;17.59;61.35
64023;BME280;50264;52.088;5.296;2022-07-29T06:14:51;101660.0;;;17.68;61.4
64023;BME280;50264;52.088;5.296;2022-07-29T06:18:24;101661.0;;;17.7;61.04
64023;BME280;50264;52.088;5.296;2022-07-29T06:20:10;101664.0;;;17.71;61.12
64023;BME280;50264;52.088;5.296;2022-07-29T06:21:57;101668.0;;;17.78;61.33
64023;BME280;50264;52.088;5.296;2022-07-29T06:23:45;101676.0;;;17.64;62.64
64023;BME280;50264;52.088;5.296;2022-07-29T06:25:34;101676.0;;;17.77;59.83
64023;BME280;50264;52.088;5.296;2022-07-29T06:27:20;101678.0;;;17.79;61.8
64023;BME280;50264;52.088;5.296;2022-07-29T06:30:55;101682.0;;;17.71;61.02
64023;BME280;50264;52.088;5.296;2022-07-29T06:32:42;101686.0;;;17.7;62.54
64023;BME280;50264;52.088;5.296;2022-07-29T06:34:28;101689.0;;;17.77;62.7
64023;BME280;50264;52.088;5.296;2022-07-29T06:36:14;101686.0;;;17.75;62.11
64023;BME280;50264;52.088;5.296;2022-07-29T06:38:01;101691.0;;;17.84;60.74
64023;BME280;50264;52.088;5.296;2022-07-29T06:41:00;101693.0;;;17.93;61.65
64023;BME280;50264;52.088;5.296;2022-07-29T06:42:46;101693.0;;;18.09;60.26
64023;BME280;50264;52.088;5.296;2022-07-29T06:44:33;101702.0;;;18.06;61.58
64023;BME280;50264;52.088;5.296;2022-07-29T06:46:20;101702.0;;;18.09;59.65
64023;BME280;50264;52.088;5.296;2022-07-29T06:48:08;101703.0;;;17.96;60.54
64023;BME280;50264;52.088;5.296;2022-07-29T06:51:41;101705.0;;;17.91;60.54
64023;BME280;50264;52.088;5.296;2022-07-29T06:53:28;101705.0;;;17.84;60.74
64023;BME280;50264;52.088;5.296;2022-07-29T06:55:16;101708.0;;;17.89;60.36
64023;BME280;50264;52.088;5.296;2022-07-29T06:57:02;101708.0;;;17.89;61.05
64023;BME280;50264;52.088;5.296;2022-07-29T06:58:48;101708.0;;;17.84;59.18
64023;BME280;50264;52.088;5.296;2022-07-29T07:02:21;101710.0;;;17.86;59.74
64023;BME280;50264;52.088;5.296;2022-07-29T07:04:09;101709.0;;;17.96;59.49
64023;BME280;50264;52.088;5.296;2022-07-29T07:05:56;101711.0;;;18.02;59.51
64023;BME280;50264;52.088;5.296;2022-07-29T07:07:43;101717.0;;;18.02;59.73
64023;BME280;50264;52.088;5.296;2022-07-29T07:09:29;101707.0;;;18.16;60.31
64023;BME280;50264;52.088;5.296;2022-07-29T07:11:15;101709.0;;;18.28;60.59
64023;BME280;50264;52.088;5.296;2022-07-29T07:14:49;101711.0;;;18.31;58.87
64023;BME280;50264;52.088;5.296;2022-07-29T07:16:36;101707.0;;;18.34;59.54
64023;BME280;50264;52.088;5.296;2022-07-29T07:18:22;101706.0;;;18.28;58.01
64023;BME280;50264;52.088;5.296;2022-07-29T07:20:08;101708.0;;;18.31;58.71
64023;BME280;50264;52.088;5.296;2022-07-29T07:21:55;101706.0;;;18.36;59.44
64023;BME280;50264;52.088;5.296;2022-07-29T07:23:42;101696.0;;;18.52;58.55
64023;BME280;50264;52.088;5.296;2022-07-29T07:27:14;101697.0;;;18.66;58.57
64023;BME280;50264;52.088;5.296;2022-07-29T07:29:00;101698.0;;;18.73;57.44
64023;BME280;50264;52.088;5.296;2022-07-29T07:30:47;101699.0;;;18.88;58.05
64023;BME280;50264;52.088;5.296;2022-07-29T07:32:35;101702.0;;;18.8;58.04
64023;BME280;50264;52.088;5.296;2022-07-29T07:34:21;101697.0;;;18.88;58.0
64023;BME280;50264;52.088;5.296;2022-07-29T07:37:53;101693.0;;;18.86;58.06
64023;BME280;50264;52.088;5.296;2022-07-29T07:39:41;101694.0;;;18.95;58.17
64023;BME280;50264;52.088;5.296;2022-07-29T07:41:28;101696.0;;;18.93;57.43
64023;BME280;50264;52.088;5.296;2022-07-29T07:43:14;101696.0;;;19.07;57.45
64023;BME280;50264;52.088;5.296;2022-07-29T07:45:00;101699.0;;;18.96;56.54
64023;BME280;50264;52.088;5.296;2022-07-29T07:46:46;101694.0;;;18.93;56.92
64023;BME280;50264;52.088;5.296;2022-07-29T07:50:21;101691.0;;;19.02;57.44
64023;BME280;50264;52.088;5.296;2022-07-29T07:52:07;101691.0;;;19.11;57.1
64023;BME280;50264;52.088;5.296;2022-07-29T07:53:54;101698.0;;;19.07;56.95
64023;BME280;50264;52.088;5.296;2022-07-29T07:55:40;101695.0;;;18.93;57.85
64023;BME280;50264;52.088;5.296;2022-07-29T07:57:29;101694.0;;;18.89;57.54
64023;BME280;50264;52.088;5.296;2022-07-29T07:59:16;101693.0;;;19.02;58.93
64023;BME280;50264;52.088;5.296;2022-07-29T08:02:50;101684.0;;;19.03;59.35
64023;BME280;50264;52.088;5.296;2022-07-29T08:04:37;101672.0;;;19.18;58.59
64023;BME280;50264;52.088;5.296;2022-07-29T08:06:25;101669.0;;;19.28;58.95
64023;BME280;50264;52.088;5.296;2022-07-29T08:08:11;101666.0;;;19.29;58.91
64023;BME280;50264;52.088;5.296;2022-07-29T08:09:57;101663.0;;;19.36;57.42
64023;BME280;50264;52.088;5.296;2022-07-29T08:13:30;101669.0;;;19.36;57.22
64023;BME280;50264;52.088;5.296;2022-07-29T08:15:16;101673.0;;;19.62;56.89
64023;BME280;50264;52.088;5.296;2022-07-29T08:17:03;101676.0;;;19.75;55.95
64023;BME280;50264;52.088;5.296;2022-07-29T08:18:49;101680.0;;;19.86;56.16
64023;BME280;50264;52.088;5.296;2022-07-29T08:20:36;101685.0;;;20.04;55.79
64023;BME280;50264;52.088;5.296;2022-07-29T08:22:23;101687.0;;;20.12;54.86
64023;BME280;50264;52.088;5.296;2022-07-29T08:26:59;101691.0;;;20.05;55.23
64023;BME280;50264;52.088;5.296;2022-07-29T08:28:46;101685.0;;;20.16;54.24
64023;BME280;50264;52.088;5.296;2022-07-29T08:32:20;101684.0;;;20.23;55.16
64023;BME280;50264;52.088;5.296;2022-07-29T08:34:09;101687.0;;;20.34;53.21
64023;BME280;50264;52.088;5.296;2022-07-29T08:35:55;101689.0;;;20.34;53.43
64023;BME280;50264;52.088;5.296;2022-07-29T08:37:42;101693.0;;;20.34;53.65
64023;BME280;50264;52.088;5.296;2022-07-29T08:39:28;101681.0;;;20.16;53.81
64023;BME280;50264;52.088;5.296;2022-07-29T08:41:15;101693.0;;;20.34;54.89
64023;BME280;50264;52.088;5.296;2022-07-29T08:44:54;101693.0;;;20.38;54.66
64023;BME280;50264;52.088;5.296;2022-07-29T08:46:41;101692.0;;;20.34;53.95
64023;BME280;50264;52.088;5.296;2022-07-29T08:48:29;101690.0;;;20.5;53.89
64023;BME280;50264;52.088;5.296;2022-07-29T08:50:15;101693.0;;;20.73;54.28
64023;BME280;50264;52.088;5.296;2022-07-29T08:52:02;101693.0;;;20.72;53.12
64023;BME280;50264;52.088;5.296;2022-07-29T08:53:49;101695.0;;;20.92;52.89
64023;BME280;50264;52.088;5.296;2022-07-29T08:57:26;101696.0;;;21.02;54.46
64023;BME280;50264;52.088;5.296;2022-07-29T08:59:13;101693.0;;;21.15;51.63
64023;BME280;50264;52.088;5.296;2022-07-29T09:01:01;101697.0;;;21.29;52.47
64023;BME280;50264;52.088;5.296;2022-07-29T09:02:51;101699.0;;;21.4;50.96
64023;BME280;50264;52.088;5.296;2022-07-29T09:04:42;101691.0;;;21.54;50.21
64023;BME280;50264;52.088;5.296;2022-07-29T09:06:34;101695.0;;;21.64;51.19
64023;BME280;50264;52.088;5.296;2022-07-29T09:08:23;101691.0;;;21.62;51.39
64023;BME280;50264;52.088;5.296;2022-07-29T09:11:58;101688.0;;;21.79;50.98
64023;BME280;50264;52.088;5.296;2022-07-29T09:13:46;101688.0;;;22.02;50.43
64023;BME280;50264;52.088;5.296;2022-07-29T09:15:32;101692.0;;;22.11;48.5
64023;BME280;50264;52.088;5.296;2022-07-29T09:17:39;101694.0;;;22.29;48.51
64023;BME280;50264;52.088;5.296;2022-07-29T09:19:28;101694.0;;;22.11;47.32
64023;BME280;50264;52.088;5.296;2022-07-29T09:22:28;101692.0;;;22.24;48.49
64023;BME280;50264;52.088;5.296;2022-07-29T09:24:16;101688.0;;;22.47;47.55
64023;BME280;50264;52.088;5.296;2022-07-29T09:26:05;101684.0;;;22.52;46.16
64023;BME280;50264;52.088;5.296;2022-07-29T09:27:51;101680.0;;;22.56;47.03
64023;BME280;50264;52.088;5.296;2022-07-29T09:29:38;101682.0;;;22.83;48.0
64023;BME280;50264;52.088;5.296;2022-07-29T09:31:32;101674.0;;;22.86;45.42
64023;BME280;50264;52.088;5.296;2022-07-29T09:35:17;101673.0;;;22.89;45.66
64023;BME280;50264;52.088;5.296;2022-07-29T09:37:05;101671.0;;;23.1;46.84
64023;BME280;50264;52.088;5.296;2022-07-29T09:38:57;101671.0;;;23.1;44.88
64023;BME280;50264;52.088;5.296;2022-07-29T09:40:55;101665.0;;;23.13;44.77
64023;BME280;50264;52.088;5.296;2022-07-29T09:42:43;101664.0;;;23.2;44.33
64023;BME280;50264;52.088;5.296;2022-07-29T09:44:46;101665.0;;;23.49;44.3
64023;BME280;50264;52.088;5.296;2022-07-29T09:46:34;101664.0;;;23.68;45.45
64023;BME280;50264;52.088;5.296;2022-07-29T09:48:24;101662.0;;;23.69;43.74
64023;BME280;50264;52.088;5.296;2022-07-29T09:50:10;101666.0;;;23.76;44.95
64023;BME280;50264;52.088;5.296;2022-07-29T09:53:50;101663.0;;;23.74;43.94
64023;BME280;50264;52.088;5.296;2022-07-29T09:55:52;101676.0;;;24.02;46.35
64023;BME280;50264;52.088;5.296;2022-07-29T09:57:39;101671.0;;;23.81;43.22
64023;BME280;50264;52.088;5.296;2022-07-29T09:59:26;101672.0;;;24.1;43.05
64023;BME280;50264;52.088;5.296;2022-07-29T10:01:12;101675.0;;;24.19;42.47
64023;BME280;50264;52.088;5.296;2022-07-29T10:03:01;101673.0;;;24.2;43.21
64023;BME280;50264;52.088;5.296;2022-07-29T10:04:47;101671.0;;;24.39;42.39
64023;BME280;50264;52.088;5.296;2022-07-29T10:08:41;101673.0;;;24.62;42.45
64023;BME280;50264;52.088;5.296;2022-07-29T10:10:30;101667.0;;;24.77;41.31
64023;BME280;50264;52.088;5.296;2022-07-29T10:12:18;101668.0;;;24.99;41.94
64023;BME280;50264;52.088;5.296;2022-07-29T10:14:05;101670.0;;;24.89;41.0
64023;BME280;50264;52.088;5.296;2022-07-29T10:15:51;101670.0;;;24.68;40.36
64023;BME280;50264;52.088;5.296;2022-07-29T10:17:39;101672.0;;;24.82;40.97
64023;BME280;50264;52.088;5.296;2022-07-29T10:19:28;101670.0;;;25.01;41.11
64023;BME280;50264;52.088;5.296;2022-07-29T10:23:02;101671.0;;;25.23;40.57
64023;BME280;50264;52.088;5.296;2022-07-29T10:24:50;101664.0;;;25.14;40.0
64023;BME280;50264;52.088;5.296;2022-07-29T10:26:41;101671.0;;;25.51;42.57
64023;BME280;50264;52.088;5.296;2022-07-29T10:28:29;101669.0;;;25.81;41.37
64023;BME280;50264;52.088;5.296;2022-07-29T10:30:16;101666.0;;;25.65;39.93
64023;BME280;50264;52.088;5.296;2022-07-29T10:32:15;101666.0;;;25.85;41.14
64023;BME280;50264;52.088;5.296;2022-07-29T10:34:13;101666.0;;;25.92;38.93
64023;BME280;50264;52.088;5.296;2022-07-29T10:38:52;101665.0;;;26.05;38.78
64023;BME280;50264;52.088;5.296;2022-07-29T10:41:56;101669.0;;;25.81;38.58
64023;BME280;50264;52.088;5.296;2022-07-29T10:43:58;101662.0;;;25.42;39.24
64023;BME280;50264;52.088;5.296;2022-07-29T10:45:48;101666.0;;;25.92;40.04
64023;BME280;50264;52.088;5.296;2022-07-29T10:47:36;101656.0;;;25.79;38.14
64023;BME280;50264;52.088;5.296;2022-07-29T10:49:23;101660.0;;;25.89;38.75
64023;BME280;50264;52.088;5.296;2022-07-29T10:51:11;101660.0;;;26.11;39.17
64023;BME280;50264;52.088;5.296;2022-07-29T10:52:58;101656.0;;;26.29;39.49
64023;BME280;50264;52.088;5.296;2022-07-29T10:56:36;101662.0;;;26.18;38.62
64023;BME280;50264;52.088;5.296;2022-07-29T10:58:23;101662.0;;;26.45;39.69
64023;BME280;50264;52.088;5.296;2022-07-29T11:00:31;101660.0;;;26.19;37.99
64023;BME280;50264;52.088;5.296;2022-07-29T11:02:50;101663.0;;;26.26;38.96
64023;BME280;50264;52.088;5.296;2022-07-29T11:05:09;101662.0;;;26.21;38.87
64023;BME280;50264;52.088;5.296;2022-07-29T11:07:09;101661.0;;;26.45;39.36
64023;BME280;50264;52.088;5.296;2022-07-29T11:09:28;101663.0;;;26.38;37.67
64023;BME280;50264;52.088;5.296;2022-07-29T11:13:55;101661.0;;;26.35;38.79
64023;BME280;50264;52.088;5.296;2022-07-29T11:15:57;101663.0;;;26.09;38.49
64023;BME280;50264;52.088;5.296;2022-07-29T11:18:04;101661.0;;;25.99;39.35